sensor_id;sensor_type;location;lat;lon;timestamp;P1;durP1;ratioP1;P2;durP2;ratioP2
63690;SDS011;49837;57.280;27.070;2023-04-01T00:00:17;1.4;;;1.3;;
63690;SDS011;49837;57.280;27.070;2023-04-01T00:01:17;1.4;;;1.3;;
63690;SDS011;49837;57.280;27.070;2023-04-01T00:02:17;1.5;;;1.4;;
63690;SDS011;49837;57.280;27.070;2023-04-01T00:03:18;1.4;;;1.3;;
63690;SDS011;49837;57.280;27.070;2023-04-01T00:04:18;1.8;;;1.4;;
63690;SDS011;49837;57.280;27.070;2023-04-01T00:05:18;1.5;;;1.4;;
63690;SDS011;49837;57.280;27.070;2023-04-01T00:06:19;1.5;;;1.4;;
63690;SDS011;49837;57.280;27.070;2023-04-01T00:07:19;1.4;;;1.3;;
63690;SDS011;49837;57.280;27.070;2023-04-01T00:08:19;1.8;;;1.3;;
63690;SDS011;49837;57.280;27.070;2023-04-01T00:09:20;1.4;;;1.3;;
63690;SDS011;49837;57.280;27.070;2023-04-01T00:10:20;1.9;;;1.5;;
63690;SDS011;49837;57.280;27.070;2023-04-01T00:11:20;1.4;;;1.3;;
63690;SDS011;49837;57.280;27.070;2023-04-01T00:12:21;1.4;;;1.3;;
63690;SDS011;49837;57.280;27.070;2023-04-01T00:13:21;1.5;;;1.4;;
63690;SDS011;49837;57.280;27.070;2023-04-01T00:14:21;1.3;;;1.2;;
63690;SDS011;49837;57.280;27.070;2023-04-01T00:15:22;1.3;;;1.2;;
63690;SDS011;49837;57.280;27.070;2023-04-01T00:16:22;1.5;;;1.4;;
63690;SDS011;49837;57.280;27.070;2023-04-01T00:17:22;1.4;;;1.3;;
63690;SDS011;49837;57.280;27.070;2023-04-01T00:18:23;1.3;;;1.2;;
63690;SDS011;49837;57.280;27.070;2023-04-01T00:19:23;1.2;;;1.1;;
63690;SDS011;49837;57.280;27.070;2023-04-01T00:20:24;1.3;;;1.2;;
63690;SDS011;49837;57.280;27.070;2023-04-01T00:21:24;1.3;;;1.2;;
63690;SDS011;49837;57.280;27.070;2023-04-01T00:22:24;1.3;;;1.2;;
63690;SDS011;49837;57.280;27.070;2023-04-01T00:23:25;1.3;;;1.2;;
63690;SDS011;49837;57.280;27.070;2023-04-01T00:24:25;1.4;;;1.3;;
63690;SDS011;49837;57.280;27.070;2023-04-01T00:25:25;1.7;;;1.5;;
63690;SDS011;49837;57.280;27.070;2023-04-01T00:26:26;1.4;;;1.3;;
63690;SDS011;49837;57.280;27.070;2023-04-01T00:27:26;1.5;;;1.4;;
63690;SDS011;49837;57.280;27.070;2023-04-01T00:28:26;1.6;;;1.2;;
63690;SDS011;49837;57.280;27.070;2023-04-01T00:29:30;1.4;;;1.3;;
63690;SDS011;49837;57.280;27.070;2023-04-01T00:30:27;1.4;;;1.3;;
63690;SDS011;49837;57.280;27.070;2023-04-01T00:31:27;1.4;;;1.3;;
63690;SDS011;49837;57.280;27.070;2023-04-01T00:32:28;1.4;;;1.3;;
63690;SDS011;49837;57.280;27.070;2023-04-01T00:33:28;1.3;;;1.2;;
63690;SDS011;49837;57.280;27.070;2023-04-01T00:34:28;1.4;;;1.3;;
63690;SDS011;49837;57.280;27.070;2023-04-01T00:35:29;1.4;;;1.3;;
63690;SDS011;49837;57.280;27.070;2023-04-01T00:36:29;1.4;;;1.3;;
63690;SDS011;49837;57.280;27.070;2023-04-01T00:37:29;1.6;;;1.5;;
63690;SDS011;49837;57.280;27.070;2023-04-01T00:38:30;1.4;;;1.3;;
63690;SDS011;49837;57.280;27.070;2023-04-01T00:39:30;1.4;;;1.3;;
63690;SDS011;49837;57.280;27.070;2023-04-01T00:40:32;1.5;;;1.4;;
63690;SDS011;49837;57.280;27.070;2023-04-01T00:41:34;1.5;;;1.4;;
63690;SDS011;49837;57.280;27.070;2023-04-01T00:42:35;1.2;;;1.1;;
63690;SDS011;49837;57.280;27.070;2023-04-01T00:43:35;1.3;;;1.2;;
63690;SDS011;49837;57.280;27.070;2023-04-01T00:44:36;1.4;;;1.3;;
63690;SDS011;49837;57.280;27.070;2023-04-01T00:45:37;1.4;;;1.3;;
63690;SDS011;49837;57.280;27.070;2023-04-01T00:46:36;1.4;;;1.3;;
63690;SDS011;49837;57.280;27.070;2023-04-01T00:47:36;1.3;;;1.2;;
63690;SDS011;49837;57.280;27.070;2023-04-01T00:48:38;1.5;;;1.4;;
63690;SDS011;49837;57.280;27.070;2023-04-01T00:49:40;1.4;;;1.3;;
63690;SDS011;49837;57.280;27.070;2023-04-01T00:50:42;1.4;;;1.3;;
63690;SDS011;49837;57.280;27.070;2023-04-01T00:51:47;1.4;;;1.3;;
63690;SDS011;49837;57.280;27.070;2023-04-01T00:52:47;1.4;;;1.3;;
63690;SDS011;49837;57.280;27.070;2023-04-01T00:53:48;1.4;;;1.3;;
63690;SDS011;49837;57.280;27.070;2023-04-01T00:54:48;1.1;;;1.1;;
63690;SDS011;49837;57.280;27.070;2023-04-01T00:55:51;1.3;;;1.2;;
63690;SDS011;49837;57.280;27.070;2023-04-01T00:56:55;1.4;;;1.3;;
63690;SDS011;49837;57.280;27.070;2023-04-01T00:57:55;1.4;;;1.3;;
63690;SDS011;49837;57.280;27.070;2023-04-01T00:58:57;1.3;;;1.2;;
63690;SDS011;49837;57.280;27.070;2023-04-01T00:59:57;1.3;;;1.2;;
63690;SDS011;49837;57.280;27.070;2023-04-01T01:00:58;1.4;;;1.3;;
63690;SDS011;49837;57.280;27.070;2023-04-01T01:01:58;1.4;;;1.3;;
63690;SDS011;49837;57.280;27.070;2023-04-01T01:02:58;1.7;;;1.4;;
63690;SDS011;49837;57.280;27.070;2023-04-01T01:03:58;1.4;;;1.3;;
63690;SDS011;49837;57.280;27.070;2023-04-01T01:04:59;1.4;;;1.3;;
63690;SDS011;49837;57.280;27.070;2023-04-01T01:06:05;1.4;;;1.3;;
63690;SDS011;49837;57.280;27.070;2023-04-01T01:08:12;1.4;;;1.3;;
63690;SDS011;49837;57.280;27.070;2023-04-01T01:10:12;1.3;;;1.2;;
63690;SDS011;49837;57.280;27.070;2023-04-01T01:11:11;1.6;;;1.5;;
63690;SDS011;49837;57.280;27.070;2023-04-01T01:12:30;1.3;;;1.2;;
63690;SDS011;49837;57.280;27.070;2023-04-01T01:13:36;1.9;;;1.3;;
63690;SDS011;49837;57.280;27.070;2023-04-01T01:14:33;1.4;;;1.3;;
63690;SDS011;49837;57.280;27.070;2023-04-01T01:15:34;1.4;;;1.3;;
63690;SDS011;49837;57.280;27.070;2023-04-01T01:16:28;1.4;;;1.3;;
63690;SDS011;49837;57.280;27.070;2023-04-01T01:17:47;1.7;;;1.4;;
63690;SDS011;49837;57.280;27.070;2023-04-01T01:18:35;1.4;;;1.3;;
63690;SDS011;49837;57.280;27.070;2023-04-01T01:22:52;1.6;;;1.3;;
63690;SDS011;49837;57.280;27.070;2023-04-01T01:24:54;1.4;;;1.3;;
63690;SDS011;49837;57.280;27.070;2023-04-01T01:26:03;1.4;;;1.3;;
63690;SDS011;49837;57.280;27.070;2023-04-01T01:28:07;1.4;;;1.3;;
63690;SDS011;49837;57.280;27.070;2023-04-01T01:30:04;1.5;;;1.1;;
63690;SDS011;49837;57.280;27.070;2023-04-01T01:31:07;1.4;;;1.3;;
63690;SDS011;49837;57.280;27.070;2023-04-01T01:33:11;1.4;;;1.3;;
63690;SDS011;49837;57.280;27.070;2023-04-01T01:34:22;1.3;;;1.2;;
63690;SDS011;49837;57.280;27.070;2023-04-01T01:36:12;1.3;;;1.2;;
63690;SDS011;49837;57.280;27.070;2023-04-01T01:37:16;1.3;;;1.2;;
63690;SDS011;49837;57.280;27.070;2023-04-01T01:38:21;1.4;;;1.3;;
63690;SDS011;49837;57.280;27.070;2023-04-01T01:39:17;1.3;;;1.3;;
63690;SDS011;49837;57.280;27.070;2023-04-01T01:40:17;1.2;;;1.1;;
63690;SDS011;49837;57.280;27.070;2023-04-01T01:41:18;1.1;;;1.1;;
63690;SDS011;49837;57.280;27.070;2023-04-01T01:42:18;1.3;;;1.2;;
63690;SDS011;49837;57.280;27.070;2023-04-01T01:43:19;1.4;;;1.3;;
63690;SDS011;49837;57.280;27.070;2023-04-01T01:44:20;1.3;;;1.2;;
63690;SDS011;49837;57.280;27.070;2023-04-01T01:45:21;1.5;;;1.3;;
63690;SDS011;49837;57.280;27.070;2023-04-01T01:46:23;1.4;;;1.3;;
63690;SDS011;49837;57.280;27.070;2023-04-01T01:47:23;1.3;;;1.2;;
63690;SDS011;49837;57.280;27.070;2023-04-01T01:48:23;1.3;;;1.2;;
63690;SDS011;49837;57.280;27.070;2023-04-01T01:49:23;1.3;;;1.2;;
63690;SDS011;49837;57.280;27.070;2023-04-01T01:50:25;1.2;;;1.1;;
63690;SDS011;49837;57.280;27.070;2023-04-01T01:51:26;1.1;;;1.1;;
63690;SDS011;49837;57.280;27.070;2023-04-01T01:52:26;1.2;;;1.1;;
63690;SDS011;49837;57.280;27.070;2023-04-01T01:53:26;1.1;;;1.1;;
63690;SDS011;49837;57.280;27.070;2023-04-01T01:54:26;1.0;;;1.0;;
63690;SDS011;49837;57.280;27.070;2023-04-01T01:55:31;1.3;;;1.2;;
63690;SDS011;49837;57.280;27.070;2023-04-01T01:56:31;1.0;;;1.0;;
63690;SDS011;49837;57.280;27.070;2023-04-01T01:57:33;1.3;;;1.2;;
63690;SDS011;49837;57.280;27.070;2023-04-01T01:58:33;1.2;;;1.1;;
63690;SDS011;49837;57.280;27.070;2023-04-01T01:59:35;1.2;;;1.1;;
63690;SDS011;49837;57.280;27.070;2023-04-01T02:00:36;1.1;;;1.1;;
63690;SDS011;49837;57.280;27.070;2023-04-01T02:01:37;1.0;;;1.0;;
63690;SDS011;49837;57.280;27.070;2023-04-01T02:02:45;1.2;;;1.1;;
63690;SDS011;49837;57.280;27.070;2023-04-01T02:03:39;1.3;;;1.2;;
63690;SDS011;49837;57.280;27.070;2023-04-01T02:04:40;1.5;;;1.1;;
63690;SDS011;49837;57.280;27.070;2023-04-01T02:05:40;1.0;;;1.0;;
63690;SDS011;49837;57.280;27.070;2023-04-01T02:06:42;1.3;;;1.2;;
63690;SDS011;49837;57.280;27.070;2023-04-01T02:07:46;1.2;;;1.1;;
63690;SDS011;49837;57.280;27.070;2023-04-01T02:09:01;1.3;;;1.2;;
63690;SDS011;49837;57.280;27.070;2023-04-01T02:09:50;1.1;;;1.1;;
63690;SDS011;49837;57.280;27.070;2023-04-01T02:11:04;1.1;;;1.1;;
63690;SDS011;49837;57.280;27.070;2023-04-01T02:11:56;1.4;;;1.3;;
63690;SDS011;49837;57.280;27.070;2023-04-01T02:12:57;1.4;;;1.3;;
63690;SDS011;49837;57.280;27.070;2023-04-01T02:14:01;1.3;;;1.2;;
63690;SDS011;49837;57.280;27.070;2023-04-01T02:15:06;1.3;;;1.2;;
63690;SDS011;49837;57.280;27.070;2023-04-01T02:16:25;1.3;;;1.2;;
63690;SDS011;49837;57.280;27.070;2023-04-01T02:17:18;1.1;;;1.1;;
63690;SDS011;49837;57.280;27.070;2023-04-01T02:18:10;1.5;;;1.4;;
63690;SDS011;49837;57.280;27.070;2023-04-01T02:19:11;1.7;;;1.2;;
63690;SDS011;49837;57.280;27.070;2023-04-01T02:20:13;1.1;;;1.1;;
63690;SDS011;49837;57.280;27.070;2023-04-01T02:21:14;1.2;;;1.1;;
63690;SDS011;49837;57.280;27.070;2023-04-01T02:22:16;1.3;;;1.2;;
63690;SDS011;49837;57.280;27.070;2023-04-01T02:23:19;1.2;;;1.2;;
63690;SDS011;49837;57.280;27.070;2023-04-01T02:24:19;1.4;;;1.3;;
63690;SDS011;49837;57.280;27.070;2023-04-01T02:25:23;1.2;;;1.2;;
63690;SDS011;49837;57.280;27.070;2023-04-01T02:26:24;1.5;;;1.4;;
63690;SDS011;49837;57.280;27.070;2023-04-01T02:27:27;1.3;;;1.2;;
63690;SDS011;49837;57.280;27.070;2023-04-01T02:28:26;1.2;;;1.1;;
63690;SDS011;49837;57.280;27.070;2023-04-01T02:29:27;1.1;;;1.1;;
63690;SDS011;49837;57.280;27.070;2023-04-01T02:30:27;1.2;;;1.2;;
63690;SDS011;49837;57.280;27.070;2023-04-01T02:31:28;1.4;;;1.3;;
63690;SDS011;49837;57.280;27.070;2023-04-01T02:32:28;1.3;;;1.2;;
63690;SDS011;49837;57.280;27.070;2023-04-01T02:33:28;1.3;;;1.2;;
63690;SDS011;49837;57.280;27.070;2023-04-01T02:34:28;1.1;;;1.1;;
63690;SDS011;49837;57.280;27.070;2023-04-01T02:35:29;1.0;;;1.0;;
63690;SDS011;49837;57.280;27.070;2023-04-01T02:36:29;1.3;;;1.2;;
63690;SDS011;49837;57.280;27.070;2023-04-01T02:37:29;1.3;;;1.2;;
63690;SDS011;49837;57.280;27.070;2023-04-01T02:38:30;1.0;;;1.0;;
63690;SDS011;49837;57.280;27.070;2023-04-01T02:39:30;1.2;;;1.1;;
63690;SDS011;49837;57.280;27.070;2023-04-01T02:40:40;1.3;;;1.2;;
63690;SDS011;49837;57.280;27.070;2023-04-01T02:41:41;1.4;;;1.3;;
63690;SDS011;49837;57.280;27.070;2023-04-01T02:42:39;1.4;;;1.3;;
63690;SDS011;49837;57.280;27.070;2023-04-01T02:43:39;1.5;;;1.4;;
63690;SDS011;49837;57.280;27.070;2023-04-01T02:44:40;1.2;;;1.2;;
63690;SDS011;49837;57.280;27.070;2023-04-01T02:45:40;1.3;;;1.2;;
63690;SDS011;49837;57.280;27.070;2023-04-01T02:46:40;1.1;;;1.1;;
63690;SDS011;49837;57.280;27.070;2023-04-01T02:47:41;1.2;;;1.1;;
63690;SDS011;49837;57.280;27.070;2023-04-01T02:48:41;1.4;;;1.3;;
63690;SDS011;49837;57.280;27.070;2023-04-01T02:49:43;1.3;;;1.2;;
63690;SDS011;49837;57.280;27.070;2023-04-01T02:50:42;1.3;;;1.2;;
63690;SDS011;49837;57.280;27.070;2023-04-01T02:51:42;1.3;;;1.2;;
63690;SDS011;49837;57.280;27.070;2023-04-01T02:52:42;1.2;;;1.2;;
63690;SDS011;49837;57.280;27.070;2023-04-01T02:53:43;1.3;;;1.2;;
63690;SDS011;49837;57.280;27.070;2023-04-01T02:54:43;1.3;;;1.2;;
63690;SDS011;49837;57.280;27.070;2023-04-01T02:55:43;1.3;;;1.2;;
63690;SDS011;49837;57.280;27.070;2023-04-01T02:56:44;2.2;;;1.6;;
63690;SDS011;49837;57.280;27.070;2023-04-01T02:57:44;1.3;;;1.2;;
63690;SDS011;49837;57.280;27.070;2023-04-01T02:58:45;1.4;;;1.3;;
63690;SDS011;49837;57.280;27.070;2023-04-01T02:59:45;1.4;;;1.3;;
63690;SDS011;49837;57.280;27.070;2023-04-01T03:00:45;1.4;;;1.3;;
63690;SDS011;49837;57.280;27.070;2023-04-01T03:01:45;1.3;;;1.2;;
63690;SDS011;49837;57.280;27.070;2023-04-01T03:02:46;1.3;;;1.2;;
63690;SDS011;49837;57.280;27.070;2023-04-01T03:03:46;1.3;;;1.2;;
63690;SDS011;49837;57.280;27.070;2023-04-01T03:04:46;1.3;;;1.2;;
63690;SDS011;49837;57.280;27.070;2023-04-01T03:05:47;1.4;;;1.3;;
63690;SDS011;49837;57.280;27.070;2023-04-01T03:06:47;1.5;;;1.4;;
63690;SDS011;49837;57.280;27.070;2023-04-01T03:07:48;1.7;;;1.6;;
63690;SDS011;49837;57.280;27.070;2023-04-01T03:08:48;2.2;;;2.0;;
63690;SDS011;49837;57.280;27.070;2023-04-01T03:09:48;3.2;;;2.5;;
63690;SDS011;49837;57.280;27.070;2023-04-01T03:10:49;6.2;;;4.0;;
63690;SDS011;49837;57.280;27.070;2023-04-01T03:11:49;9.7;;;6.1;;
63690;SDS011;49837;57.280;27.070;2023-04-01T03:12:51;12.3;;;8.9;;
63690;SDS011;49837;57.280;27.070;2023-04-01T03:13:50;15.1;;;10.2;;
63690;SDS011;49837;57.280;27.070;2023-04-01T03:14:50;13.1;;;9.3;;
63690;SDS011;49837;57.280;27.070;2023-04-01T03:15:50;14.7;;;9.7;;
63690;SDS011;49837;57.280;27.070;2023-04-01T03:16:51;9.7;;;7.3;;
63690;SDS011;49837;57.280;27.070;2023-04-01T03:17:51;8.7;;;6.7;;
63690;SDS011;49837;57.280;27.070;2023-04-01T03:18:51;5.1;;;3.7;;
63690;SDS011;49837;57.280;27.070;2023-04-01T03:19:52;5.5;;;4.4;;
63690;SDS011;49837;57.280;27.070;2023-04-01T03:20:52;6.1;;;4.4;;
63690;SDS011;49837;57.280;27.070;2023-04-01T03:21:52;5.1;;;3.9;;
63690;SDS011;49837;57.280;27.070;2023-04-01T03:22:53;4.3;;;3.7;;
63690;SDS011;49837;57.280;27.070;2023-04-01T03:23:53;5.1;;;3.4;;
63690;SDS011;49837;57.280;27.070;2023-04-01T03:24:54;3.4;;;2.8;;
63690;SDS011;49837;57.280;27.070;2023-04-01T03:25:54;3.1;;;2.4;;
63690;SDS011;49837;57.280;27.070;2023-04-01T03:26:57;3.1;;;2.4;;
63690;SDS011;49837;57.280;27.070;2023-04-01T03:27:54;2.0;;;1.8;;
63690;SDS011;49837;57.280;27.070;2023-04-01T03:28:55;1.8;;;1.7;;
63690;SDS011;49837;57.280;27.070;2023-04-01T03:29:55;1.6;;;1.5;;
63690;SDS011;49837;57.280;27.070;2023-04-01T03:30:56;1.5;;;1.4;;
63690;SDS011;49837;57.280;27.070;2023-04-01T03:31:56;1.5;;;1.4;;
63690;SDS011;49837;57.280;27.070;2023-04-01T03:32:57;1.4;;;1.3;;
63690;SDS011;49837;57.280;27.070;2023-04-01T03:33:57;1.4;;;1.3;;
63690;SDS011;49837;57.280;27.070;2023-04-01T03:34:57;1.3;;;1.2;;
63690;SDS011;49837;57.280;27.070;2023-04-01T03:35:57;1.1;;;1.1;;
63690;SDS011;49837;57.280;27.070;2023-04-01T03:36:58;1.5;;;1.4;;
63690;SDS011;49837;57.280;27.070;2023-04-01T03:37:58;1.5;;;1.4;;
63690;SDS011;49837;57.280;27.070;2023-04-01T03:38:58;1.4;;;1.3;;
63690;SDS011;49837;57.280;27.070;2023-04-01T03:39:59;1.2;;;1.2;;
63690;SDS011;49837;57.280;27.070;2023-04-01T03:40:59;1.4;;;1.3;;
63690;SDS011;49837;57.280;27.070;2023-04-01T03:41:59;1.3;;;1.2;;
63690;SDS011;49837;57.280;27.070;2023-04-01T03:43:00;1.4;;;1.3;;
63690;SDS011;49837;57.280;27.070;2023-04-01T03:44:00;1.3;;;1.2;;
63690;SDS011;49837;57.280;27.070;2023-04-01T03:45:01;1.4;;;1.3;;
63690;SDS011;49837;57.280;27.070;2023-04-01T03:46:01;1.5;;;1.4;;
63690;SDS011;49837;57.280;27.070;2023-04-01T03:47:01;1.1;;;1.1;;
63690;SDS011;49837;57.280;27.070;2023-04-01T03:48:01;1.4;;;1.3;;
63690;SDS011;49837;57.280;27.070;2023-04-01T03:49:02;1.4;;;1.3;;
63690;SDS011;49837;57.280;27.070;2023-04-01T03:50:02;1.6;;;1.5;;
63690;SDS011;49837;57.280;27.070;2023-04-01T03:51:06;1.3;;;1.2;;
63690;SDS011;49837;57.280;27.070;2023-04-01T03:52:04;1.4;;;1.3;;
63690;SDS011;49837;57.280;27.070;2023-04-01T03:53:06;1.3;;;1.2;;
63690;SDS011;49837;57.280;27.070;2023-04-01T03:54:06;1.4;;;1.3;;
63690;SDS011;49837;57.280;27.070;2023-04-01T03:55:07;1.4;;;1.3;;
63690;SDS011;49837;57.280;27.070;2023-04-01T03:56:07;1.4;;;1.3;;
63690;SDS011;49837;57.280;27.070;2023-04-01T03:57:07;1.4;;;1.3;;
63690;SDS011;49837;57.280;27.070;2023-04-01T03:58:08;1.3;;;1.2;;
63690;SDS011;49837;57.280;27.070;2023-04-01T03:59:08;1.3;;;1.2;;
63690;SDS011;49837;57.280;27.070;2023-04-01T04:00:09;1.4;;;1.3;;
63690;SDS011;49837;57.280;27.070;2023-04-01T04:01:16;1.1;;;1.1;;
63690;SDS011;49837;57.280;27.070;2023-04-01T04:02:11;1.4;;;1.3;;
63690;SDS011;49837;57.280;27.070;2023-04-01T04:03:12;1.4;;;1.3;;
63690;SDS011;49837;57.280;27.070;2023-04-01T04:04:12;1.4;;;1.3;;
63690;SDS011;49837;57.280;27.070;2023-04-01T04:05:11;1.4;;;1.3;;
63690;SDS011;49837;57.280;27.070;2023-04-01T04:06:12;1.3;;;1.2;;
63690;SDS011;49837;57.280;27.070;2023-04-01T04:07:11;1.4;;;1.3;;
63690;SDS011;49837;57.280;27.070;2023-04-01T04:08:12;1.3;;;1.2;;
63690;SDS011;49837;57.280;27.070;2023-04-01T04:09:12;1.0;;;1.0;;
63690;SDS011;49837;57.280;27.070;2023-04-01T04:10:12;1.2;;;1.2;;
63690;SDS011;49837;57.280;27.070;2023-04-01T04:11:13;1.4;;;1.3;;
63690;SDS011;49837;57.280;27.070;2023-04-01T04:12:13;1.4;;;1.3;;
63690;SDS011;49837;57.280;27.070;2023-04-01T04:13:13;1.5;;;1.4;;
63690;SDS011;49837;57.280;27.070;2023-04-01T04:14:14;1.4;;;1.3;;
63690;SDS011;49837;57.280;27.070;2023-04-01T04:15:14;1.6;;;1.5;;
63690;SDS011;49837;57.280;27.070;2023-04-01T04:16:15;1.9;;;1.7;;
63690;SDS011;49837;57.280;27.070;2023-04-01T04:17:15;1.9;;;1.7;;
63690;SDS011;49837;57.280;27.070;2023-04-01T04:18:15;1.9;;;1.8;;
63690;SDS011;49837;57.280;27.070;2023-04-01T04:19:16;1.8;;;1.7;;
63690;SDS011;49837;57.280;27.070;2023-04-01T04:20:16;1.9;;;1.8;;
63690;SDS011;49837;57.280;27.070;2023-04-01T04:21:16;2.0;;;1.8;;
63690;SDS011;49837;57.280;27.070;2023-04-01T04:22:17;2.3;;;1.6;;
63690;SDS011;49837;57.280;27.070;2023-04-01T04:23:17;1.6;;;1.5;;
63690;SDS011;49837;57.280;27.070;2023-04-01T04:24:17;1.5;;;1.4;;
63690;SDS011;49837;57.280;27.070;2023-04-01T04:25:18;1.5;;;1.4;;
63690;SDS011;49837;57.280;27.070;2023-04-01T04:26:18;1.5;;;1.4;;
63690;SDS011;49837;57.280;27.070;2023-04-01T04:27:20;1.5;;;1.4;;
63690;SDS011;49837;57.280;27.070;2023-04-01T04:28:19;1.4;;;1.3;;
63690;SDS011;49837;57.280;27.070;2023-04-01T04:29:19;1.5;;;1.4;;
63690;SDS011;49837;57.280;27.070;2023-04-01T04:30:20;1.5;;;1.4;;
63690;SDS011;49837;57.280;27.070;2023-04-01T04:31:20;1.4;;;1.3;;
63690;SDS011;49837;57.280;27.070;2023-04-01T04:32:20;1.2;;;1.2;;
63690;SDS011;49837;57.280;27.070;2023-04-01T04:33:21;1.5;;;1.4;;
63690;SDS011;49837;57.280;27.070;2023-04-01T04:34:21;1.4;;;1.3;;
63690;SDS011;49837;57.280;27.070;2023-04-01T04:35:21;1.4;;;1.3;;
63690;SDS011;49837;57.280;27.070;2023-04-01T04:36:21;1.2;;;1.2;;
63690;SDS011;49837;57.280;27.070;2023-04-01T04:37:22;1.4;;;1.3;;
63690;SDS011;49837;57.280;27.070;2023-04-01T04:38:22;1.3;;;1.2;;
63690;SDS011;49837;57.280;27.070;2023-04-01T04:39:23;1.3;;;1.2;;
63690;SDS011;49837;57.280;27.070;2023-04-01T04:40:23;1.3;;;1.2;;
63690;SDS011;49837;57.280;27.070;2023-04-01T04:41:23;1.6;;;1.4;;
63690;SDS011;49837;57.280;27.070;2023-04-01T04:42:24;1.7;;;1.6;;
63690;SDS011;49837;57.280;27.070;2023-04-01T04:43:24;2.3;;;2.0;;
63690;SDS011;49837;57.280;27.070;2023-04-01T04:44:24;1.6;;;1.5;;
63690;SDS011;49837;57.280;27.070;2023-04-01T04:45:25;1.7;;;1.6;;
63690;SDS011;49837;57.280;27.070;2023-04-01T04:46:25;1.5;;;1.4;;
63690;SDS011;49837;57.280;27.070;2023-04-01T04:47:25;1.6;;;1.5;;
63690;SDS011;49837;57.280;27.070;2023-04-01T04:48:26;1.4;;;1.3;;
63690;SDS011;49837;57.280;27.070;2023-04-01T04:49:26;1.4;;;1.3;;
63690;SDS011;49837;57.280;27.070;2023-04-01T04:50:26;1.2;;;1.2;;
63690;SDS011;49837;57.280;27.070;2023-04-01T04:51:27;1.3;;;1.2;;
63690;SDS011;49837;57.280;27.070;2023-04-01T04:52:27;2.1;;;1.1;;
63690;SDS011;49837;57.280;27.070;2023-04-01T04:53:27;1.4;;;1.3;;
63690;SDS011;49837;57.280;27.070;2023-04-01T04:54:28;1.1;;;1.1;;
63690;SDS011;49837;57.280;27.070;2023-04-01T04:55:28;1.4;;;1.3;;
63690;SDS011;49837;57.280;27.070;2023-04-01T04:56:28;1.5;;;1.4;;
63690;SDS011;49837;57.280;27.070;2023-04-01T04:57:29;1.3;;;1.2;;
63690;SDS011;49837;57.280;27.070;2023-04-01T04:58:29;1.3;;;1.2;;
63690;SDS011;49837;57.280;27.070;2023-04-01T04:59:30;1.3;;;1.2;;
63690;SDS011;49837;57.280;27.070;2023-04-01T05:00:30;1.3;;;1.2;;
63690;SDS011;49837;57.280;27.070;2023-04-01T05:01:30;1.3;;;1.2;;
63690;SDS011;49837;57.280;27.070;2023-04-01T05:02:31;1.2;;;1.2;;
63690;SDS011;49837;57.280;27.070;2023-04-01T05:03:31;1.2;;;1.2;;
63690;SDS011;49837;57.280;27.070;2023-04-01T05:04:34;1.1;;;1.1;;
63690;SDS011;49837;57.280;27.070;2023-04-01T05:05:33;1.1;;;1.1;;
63690;SDS011;49837;57.280;27.070;2023-04-01T05:06:33;1.2;;;1.2;;
63690;SDS011;49837;57.280;27.070;2023-04-01T05:07:34;1.2;;;1.1;;
63690;SDS011;49837;57.280;27.070;2023-04-01T05:08:34;1.2;;;1.1;;
63690;SDS011;49837;57.280;27.070;2023-04-01T05:09:34;1.2;;;1.1;;
63690;SDS011;49837;57.280;27.070;2023-04-01T05:10:35;1.3;;;1.2;;
63690;SDS011;49837;57.280;27.070;2023-04-01T05:11:35;1.6;;;1.0;;
63690;SDS011;49837;57.280;27.070;2023-04-01T05:12:38;1.4;;;1.3;;
63690;SDS011;49837;57.280;27.070;2023-04-01T05:13:36;1.2;;;1.2;;
63690;SDS011;49837;57.280;27.070;2023-04-01T05:14:36;1.1;;;1.1;;
63690;SDS011;49837;57.280;27.070;2023-04-01T05:15:37;1.0;;;1.0;;
63690;SDS011;49837;57.280;27.070;2023-04-01T05:16:37;1.0;;;1.0;;
63690;SDS011;49837;57.280;27.070;2023-04-01T05:17:37;1.1;;;1.1;;
63690;SDS011;49837;57.280;27.070;2023-04-01T05:18:38;1.1;;;1.1;;
63690;SDS011;49837;57.280;27.070;2023-04-01T05:19:38;1.1;;;1.0;;
63690;SDS011;49837;57.280;27.070;2023-04-01T05:20:38;1.1;;;1.1;;
63690;SDS011;49837;57.280;27.070;2023-04-01T05:21:39;1.8;;;1.2;;
63690;SDS011;49837;57.280;27.070;2023-04-01T05:22:39;1.2;;;1.2;;
63690;SDS011;49837;57.280;27.070;2023-04-01T05:23:39;1.1;;;1.1;;
63690;SDS011;49837;57.280;27.070;2023-04-01T05:24:40;1.1;;;1.1;;
63690;SDS011;49837;57.280;27.070;2023-04-01T05:25:40;1.3;;;1.2;;
63690;SDS011;49837;57.280;27.070;2023-04-01T05:26:40;1.0;;;1.0;;
63690;SDS011;49837;57.280;27.070;2023-04-01T05:27:41;1.1;;;1.1;;
63690;SDS011;49837;57.280;27.070;2023-04-01T05:28:41;1.1;;;1.1;;
63690;SDS011;49837;57.280;27.070;2023-04-01T05:29:41;1.2;;;1.1;;
63690;SDS011;49837;57.280;27.070;2023-04-01T05:30:42;1.4;;;1.3;;
63690;SDS011;49837;57.280;27.070;2023-04-01T05:31:42;1.3;;;1.2;;
63690;SDS011;49837;57.280;27.070;2023-04-01T05:32:43;1.5;;;1.4;;
63690;SDS011;49837;57.280;27.070;2023-04-01T05:33:43;1.5;;;1.4;;
63690;SDS011;49837;57.280;27.070;2023-04-01T05:34:43;1.5;;;1.4;;
63690;SDS011;49837;57.280;27.070;2023-04-01T05:35:44;1.4;;;1.3;;
63690;SDS011;49837;57.280;27.070;2023-04-01T05:36:44;1.4;;;1.3;;
63690;SDS011;49837;57.280;27.070;2023-04-01T05:37:47;1.3;;;1.2;;
63690;SDS011;49837;57.280;27.070;2023-04-01T05:38:45;1.3;;;1.2;;
63690;SDS011;49837;57.280;27.070;2023-04-01T05:39:45;1.3;;;1.2;;
63690;SDS011;49837;57.280;27.070;2023-04-01T05:40:45;1.9;;;1.1;;
63690;SDS011;49837;57.280;27.070;2023-04-01T05:41:46;1.1;;;1.1;;
63690;SDS011;49837;57.280;27.070;2023-04-01T05:42:46;1.1;;;1.1;;
63690;SDS011;49837;57.280;27.070;2023-04-01T05:43:46;1.0;;;1.0;;
63690;SDS011;49837;57.280;27.070;2023-04-01T05:44:47;1.1;;;1.0;;
63690;SDS011;49837;57.280;27.070;2023-04-01T05:45:48;0.9;;;0.9;;
63690;SDS011;49837;57.280;27.070;2023-04-01T05:46:47;1.2;;;1.2;;
63690;SDS011;49837;57.280;27.070;2023-04-01T05:47:48;0.9;;;0.9;;
63690;SDS011;49837;57.280;27.070;2023-04-01T05:48:48;1.0;;;1.0;;
63690;SDS011;49837;57.280;27.070;2023-04-01T05:49:48;1.1;;;1.1;;
63690;SDS011;49837;57.280;27.070;2023-04-01T05:50:49;1.2;;;1.1;;
63690;SDS011;49837;57.280;27.070;2023-04-01T05:51:49;1.2;;;1.1;;
63690;SDS011;49837;57.280;27.070;2023-04-01T05:52:51;1.0;;;1.0;;
63690;SDS011;49837;57.280;27.070;2023-04-01T05:53:50;1.2;;;1.1;;
63690;SDS011;49837;57.280;27.070;2023-04-01T05:54:50;1.2;;;1.1;;
63690;SDS011;49837;57.280;27.070;2023-04-01T05:55:51;1.2;;;1.1;;
63690;SDS011;49837;57.280;27.070;2023-04-01T05:56:51;1.1;;;1.1;;
63690;SDS011;49837;57.280;27.070;2023-04-01T05:57:51;0.9;;;0.9;;
63690;SDS011;49837;57.280;27.070;2023-04-01T05:58:52;1.0;;;1.0;;
63690;SDS011;49837;57.280;27.070;2023-04-01T05:59:52;1.1;;;1.1;;
63690;SDS011;49837;57.280;27.070;2023-04-01T06:00:59;0.9;;;0.9;;
63690;SDS011;49837;57.280;27.070;2023-04-01T06:01:57;1.3;;;1.2;;
63690;SDS011;49837;57.280;27.070;2023-04-01T06:03:00;1.0;;;1.0;;
63690;SDS011;49837;57.280;27.070;2023-04-01T06:03:57;1.1;;;1.1;;
63690;SDS011;49837;57.280;27.070;2023-04-01T06:06:01;1.1;;;1.0;;
63690;SDS011;49837;57.280;27.070;2023-04-01T06:07:00;0.9;;;0.9;;
63690;SDS011;49837;57.280;27.070;2023-04-01T06:08:05;1.3;;;1.2;;
63690;SDS011;49837;57.280;27.070;2023-04-01T06:10:18;1.3;;;1.2;;
63690;SDS011;49837;57.280;27.070;2023-04-01T06:12:29;1.2;;;1.1;;
63690;SDS011;49837;57.280;27.070;2023-04-01T06:14:36;0.9;;;0.9;;
63690;SDS011;49837;57.280;27.070;2023-04-01T06:15:29;1.0;;;1.0;;
63690;SDS011;49837;57.280;27.070;2023-04-01T06:18:42;1.2;;;1.1;;
63690;SDS011;49837;57.280;27.070;2023-04-01T06:19:37;1.1;;;1.1;;
63690;SDS011;49837;57.280;27.070;2023-04-01T06:21:46;1.1;;;1.0;;
63690;SDS011;49837;57.280;27.070;2023-04-01T06:25:06;0.9;;;0.9;;
63690;SDS011;49837;57.280;27.070;2023-04-01T06:27:02;0.9;;;0.9;;
63690;SDS011;49837;57.280;27.070;2023-04-01T06:31:08;0.9;;;0.9;;
63690;SDS011;49837;57.280;27.070;2023-04-01T06:32:11;0.8;;;0.8;;
63690;SDS011;49837;57.280;27.070;2023-04-01T06:33:20;0.9;;;0.9;;
63690;SDS011;49837;57.280;27.070;2023-04-01T06:35:16;0.9;;;0.9;;
63690;SDS011;49837;57.280;27.070;2023-04-01T06:46:51;0.8;;;0.8;;